sensor_id;sensor_type;location;lat;lon;timestamp;pressure;altitude;pressure_sealevel;temperature;humidity
4598;BME280;62772;48.646;8.906;2023-12-14T00:02:15;95194.84;;;2.70;100.00
4598;BME280;62772;48.646;8.906;2023-12-14T00:07:15;95206.75;;;2.67;100.00
4598;BME280;62772;48.646;8.906;2023-12-14T00:12:16;95209.66;;;2.66;100.00
4598;BME280;62772;48.646;8.906;2023-12-14T00:17:17;95224.63;;;2.70;100.00
4598;BME280;62772;48.646;8.906;2023-12-14T00:22:17;95224.69;;;2.84;100.00
4598;BME280;62772;48.646;8.906;2023-12-14T00:27:18;95236.59;;;3.01;100.00
4598;BME280;62772;48.646;8.906;2023-12-14T00:32:18;95237.94;;;2.98;100.00
4598;BME280;62772;48.646;8.906;2023-12-14T00:37:18;95240.19;;;3.05;100.00
4598;BME280;62772;48.646;8.906;2023-12-14T00:42:19;95245.78;;;2.84;100.00
4598;BME280;62772;48.646;8.906;2023-12-14T00:47:19;95253.97;;;2.83;100.00
4598;BME280;62772;48.646;8.906;2023-12-14T00:52:20;95257.69;;;2.82;100.00
4598;BME280;62772;48.646;8.906;2023-12-14T00:57:20;95260.81;;;2.84;100.00
4598;BME280;62772;48.646;8.906;2023-12-14T01:02:20;95272.84;;;3.09;100.00
4598;BME280;62772;48.646;8.906;2023-12-14T01:07:21;95274.13;;;2.93;100.00
4598;BME280;62772;48.646;8.906;2023-12-14T01:12:21;95277.06;;;2.91;100.00
4598;BME280;62772;48.646;8.906;2023-12-14T01:17:21;95278.84;;;2.96;100.00
4598;BME280;62772;48.646;8.906;2023-12-14T01:22:22;95298.75;;;2.88;100.00
4598;BME280;62772;48.646;8.906;2023-12-14T01:27:22;95302.28;;;2.97;100.00
4598;BME280;62772;48.646;8.906;2023-12-14T01:32:23;95303.00;;;3.03;100.00
4598;BME280;62772;48.646;8.906;2023-12-14T01:37:23;95318.28;;;2.87;100.00
4598;BME280;62772;48.646;8.906;2023-12-14T01:42:24;95324.19;;;2.79;100.00
4598;BME280;62772;48.646;8.906;2023-12-14T01:47:24;95341.66;;;3.13;100.00
4598;BME280;62772;48.646;8.906;2023-12-14T01:52:25;95350.28;;;2.99;100.00
4598;BME280;62772;48.646;8.906;2023-12-14T01:57:25;95353.63;;;3.05;100.00
4598;BME280;62772;48.646;8.906;2023-12-14T02:02:25;95355.97;;;3.06;100.00
4598;BME280;62772;48.646;8.906;2023-12-14T02:07:26;95366.16;;;2.94;100.00
4598;BME280;62772;48.646;8.906;2023-12-14T02:12:26;95379.22;;;2.85;100.00
4598;BME280;62772;48.646;8.906;2023-12-14T02:17:27;95383.44;;;2.86;100.00
4598;BME280;62772;48.646;8.906;2023-12-14T02:22:35;95380.19;;;2.89;100.00
4598;BME280;62772;48.646;8.906;2023-12-14T02:27:35;95386.84;;;2.87;100.00
4598;BME280;62772;48.646;8.906;2023-12-14T02:32:36;95384.41;;;2.90;100.00
4598;BME280;62772;48.646;8.906;2023-12-14T02:37:37;95387.53;;;2.93;100.00
4598;BME280;62772;48.646;8.906;2023-12-14T02:42:37;95388.41;;;2.88;100.00
4598;BME280;62772;48.646;8.906;2023-12-14T02:47:38;95392.03;;;2.92;100.00
4598;BME280;62772;48.646;8.906;2023-12-14T02:52:38;95398.53;;;3.00;100.00
4598;BME280;62772;48.646;8.906;2023-12-14T02:57:39;95400.41;;;2.75;100.00
4598;BME280;62772;48.646;8.906;2023-12-14T03:02:39;95408.31;;;2.75;100.00
4598;BME280;62772;48.646;8.906;2023-12-14T03:07:40;95414.13;;;2.77;100.00
4598;BME280;62772;48.646;8.906;2023-12-14T03:12:41;95428.53;;;2.85;100.00
4598;BME280;62772;48.646;8.906;2023-12-14T03:17:41;95425.66;;;3.05;100.00
4598;BME280;62772;48.646;8.906;2023-12-14T03:22:42;95424.75;;;2.91;100.00
4598;BME280;62772;48.646;8.906;2023-12-14T03:27:42;95434.81;;;2.89;100.00
4598;BME280;62772;48.646;8.906;2023-12-14T03:32:43;95441.88;;;2.94;100.00
4598;BME280;62772;48.646;8.906;2023-12-14T03:37:43;95463.16;;;3.02;100.00
4598;BME280;62772;48.646;8.906;2023-12-14T03:42:44;95462.69;;;2.95;100.00
4598;BME280;62772;48.646;8.906;2023-12-14T03:47:45;95474.88;;;3.15;100.00
4598;BME280;62772;48.646;8.906;2023-12-14T03:52:45;95475.53;;;3.02;100.00
4598;BME280;62772;48.646;8.906;2023-12-14T03:57:46;95492.94;;;3.03;100.00
4598;BME280;62772;48.646;8.906;2023-12-14T04:02:47;95500.28;;;3.06;100.00
4598;BME280;62772;48.646;8.906;2023-12-14T04:07:47;95513.34;;;3.16;100.00
4598;BME280;62772;48.646;8.906;2023-12-14T04:12:48;95524.59;;;3.27;100.00
4598;BME280;62772;48.646;8.906;2023-12-14T04:17:48;95530.53;;;3.38;100.00
4598;BME280;62772;48.646;8.906;2023-12-14T04:22:48;95528.47;;;3.35;100.00
4598;BME280;62772;48.646;8.906;2023-12-14T04:27:49;95544.19;;;3.21;100.00
4598;BME280;62772;48.646;8.906;2023-12-14T04:32:50;95541.31;;;3.17;100.00
4598;BME280;62772;48.646;8.906;2023-12-14T04:37:51;95558.50;;;3.15;100.00
4598;BME280;62772;48.646;8.906;2023-12-14T04:42:51;95565.41;;;3.11;100.00
4598;BME280;62772;48.646;8.906;2023-12-14T04:47:51;95576.25;;;3.09;100.00
4598;BME280;62772;48.646;8.906;2023-12-14T04:52:52;95583.31;;;3.14;100.00
4598;BME280;62772;48.646;8.906;2023-12-14T04:57:52;95587.00;;;3.13;100.00
4598;BME280;62772;48.646;8.906;2023-12-14T05:02:53;95606.53;;;3.12;100.00
4598;BME280;62772;48.646;8.906;2023-12-14T05:07:53;95608.13;;;3.13;100.00
4598;BME280;62772;48.646;8.906;2023-12-14T05:12:53;95613.91;;;3.15;100.00
4598;BME280;62772;48.646;8.906;2023-12-14T05:17:54;95618.00;;;3.26;100.00
4598;BME280;62772;48.646;8.906;2023-12-14T05:22:54;95631.25;;;3.21;100.00
4598;BME280;62772;48.646;8.906;2023-12-14T05:27:55;95643.91;;;3.24;100.00
4598;BME280;62772;48.646;8.906;2023-12-14T05:32:56;95657.59;;;3.26;100.00
4598;BME280;62772;48.646;8.906;2023-12-14T05:37:56;95669.81;;;3.70;100.00
4598;BME280;62772;48.646;8.906;2023-12-14T05:42:57;95668.84;;;3.61;100.00
4598;BME280;62772;48.646;8.906;2023-12-14T05:47:57;95673.69;;;3.30;100.00
4598;BME280;62772;48.646;8.906;2023-12-14T05:52:58;95691.50;;;3.67;100.00
4598;BME280;62772;48.646;8.906;2023-12-14T05:57:58;95695.94;;;3.48;100.00
4598;BME280;62772;48.646;8.906;2023-12-14T06:02:58;95702.03;;;3.43;100.00
4598;BME280;62772;48.646;8.906;2023-12-14T06:07:59;95710.66;;;3.54;100.00
4598;BME280;62772;48.646;8.906;2023-12-14T06:12:59;95713.31;;;3.54;100.00
4598;BME280;62772;48.646;8.906;2023-12-14T06:18:00;95718.72;;;3.38;100.00
4598;BME280;62772;48.646;8.906;2023-12-14T06:23:00;95730.38;;;3.32;100.00
4598;BME280;62772;48.646;8.906;2023-12-14T06:28:01;95741.22;;;3.31;100.00
4598;BME280;62772;48.646;8.906;2023-12-14T06:33:01;95739.31;;;3.36;100.00
4598;BME280;62772;48.646;8.906;2023-12-14T06:38:04;95747.47;;;3.40;100.00
4598;BME280;62772;48.646;8.906;2023-12-14T06:43:05;95757.53;;;3.67;100.00
4598;BME280;62772;48.646;8.906;2023-12-14T06:48:05;95770.78;;;3.62;100.00
4598;BME280;62772;48.646;8.906;2023-12-14T06:53:06;95777.88;;;3.37;100.00
4598;BME280;62772;48.646;8.906;2023-12-14T06:58:06;95790.34;;;3.26;100.00
4598;BME280;62772;48.646;8.906;2023-12-14T07:03:11;95798.00;;;3.28;100.00
4598;BME280;62772;48.646;8.906;2023-12-14T07:08:11;95812.13;;;3.42;100.00
4598;BME280;62772;48.646;8.906;2023-12-14T07:13:12;95821.94;;;3.37;100.00
4598;BME280;62772;48.646;8.906;2023-12-14T07:18:13;95841.63;;;3.50;100.00
4598;BME280;62772;48.646;8.906;2023-12-14T07:23:13;95850.81;;;3.57;100.00
4598;BME280;62772;48.646;8.906;2023-12-14T07:28:14;95852.28;;;3.74;100.00
4598;BME280;62772;48.646;8.906;2023-12-14T07:33:14;95860.09;;;3.55;100.00
4598;BME280;62772;48.646;8.906;2023-12-14T07:38:15;95867.66;;;3.67;100.00
4598;BME280;62772;48.646;8.906;2023-12-14T07:43:15;95872.22;;;3.56;100.00
4598;BME280;62772;48.646;8.906;2023-12-14T07:48:16;95887.06;;;3.52;100.00
4598;BME280;62772;48.646;8.906;2023-12-14T07:53:16;95892.06;;;3.53;100.00
4598;BME280;62772;48.646;8.906;2023-12-14T07:58:17;95905.75;;;3.95;100.00
4598;BME280;62772;48.646;8.906;2023-12-14T08:03:17;95907.31;;;3.96;100.00
4598;BME280;62772;48.646;8.906;2023-12-14T08:08:17;95919.69;;;4.00;100.00
4598;BME280;62772;48.646;8.906;2023-12-14T08:13:18;95918.44;;;3.93;100.00
4598;BME280;62772;48.646;8.906;2023-12-14T08:18:18;95918.09;;;4.05;100.00
4598;BME280;62772;48.646;8.906;2023-12-14T08:23:19;95941.41;;;3.92;100.00
4598;BME280;62772;48.646;8.906;2023-12-14T08:28:19;95947.31;;;3.84;100.00
4598;BME280;62772;48.646;8.906;2023-12-14T08:33:20;95950.06;;;4.03;100.00
4598;BME280;62772;48.646;8.906;2023-12-14T08:38:20;95961.94;;;4.06;100.00
4598;BME280;62772;48.646;8.906;2023-12-14T08:43:21;95964.31;;;4.07;100.00
4598;BME280;62772;48.646;8.906;2023-12-14T08:48:21;95977.00;;;4.05;100.00
4598;BME280;62772;48.646;8.906;2023-12-14T08:53:24;95993.41;;;4.02;100.00
4598;BME280;62772;48.646;8.906;2023-12-14T08:58:26;96013.75;;;4.02;100.00
4598;BME280;62772;48.646;8.906;2023-12-14T09:03:26;96017.16;;;4.07;100.00
4598;BME280;62772;48.646;8.906;2023-12-14T09:08:27;96041.47;;;4.09;100.00
4598;BME280;62772;48.646;8.906;2023-12-14T09:13:27;96050.94;;;4.15;100.00
4598;BME280;62772;48.646;8.906;2023-12-14T09:18:28;96060.97;;;4.18;100.00
4598;BME280;62772;48.646;8.906;2023-12-14T09:23:28;96067.00;;;4.24;100.00
4598;BME280;62772;48.646;8.906;2023-12-14T09:28:29;96074.06;;;4.34;100.00
4598;BME280;62772;48.646;8.906;2023-12-14T09:33:29;96087.25;;;4.39;100.00
4598;BME280;62772;48.646;8.906;2023-12-14T09:38:30;96092.97;;;4.57;100.00
4598;BME280;62772;48.646;8.906;2023-12-14T09:43:30;96092.97;;;4.57;100.00
4598;BME280;62772;48.646;8.906;2023-12-14T09:48:31;96095.31;;;4.58;100.00
4598;BME280;62772;48.646;8.906;2023-12-14T09:53:32;96098.97;;;4.62;100.00
4598;BME280;62772;48.646;8.906;2023-12-14T09:58:33;96103.66;;;4.70;100.00
4598;BME280;62772;48.646;8.906;2023-12-14T10:03:33;96107.13;;;4.71;100.00
4598;BME280;62772;48.646;8.906;2023-12-14T10:08:34;96114.69;;;4.83;100.00
4598;BME280;62772;48.646;8.906;2023-12-14T10:13:38;96117.63;;;4.81;100.00
4598;BME280;62772;48.646;8.906;2023-12-14T10:18:39;96128.47;;;4.80;100.00
4598;BME280;62772;48.646;8.906;2023-12-14T10:23:40;96128.72;;;4.83;100.00
4598;BME280;62772;48.646;8.906;2023-12-14T10:28:40;96115.56;;;5.07;100.00
4598;BME280;62772;48.646;8.906;2023-12-14T10:33:41;96113.03;;;5.21;100.00
4598;BME280;62772;48.646;8.906;2023-12-14T10:38:43;96124.00;;;5.09;100.00
4598;BME280;62772;48.646;8.906;2023-12-14T10:43:46;96129.47;;;5.18;100.00
4598;BME280;62772;48.646;8.906;2023-12-14T10:48:49;96124.69;;;5.20;100.00
4598;BME280;62772;48.646;8.906;2023-12-14T10:53:50;96138.09;;;5.29;100.00
4598;BME280;62772;48.646;8.906;2023-12-14T11:03:54;96152.13;;;5.30;100.00
4598;BME280;62772;48.646;8.906;2023-12-14T11:09:00;96158.22;;;5.30;100.00
4598;BME280;62772;48.646;8.906;2023-12-14T11:14:01;96158.34;;;5.44;100.00
4598;BME280;62772;48.646;8.906;2023-12-14T11:19:24;96161.59;;;5.65;100.00
4598;BME280;62772;48.646;8.906;2023-12-14T11:24:25;96174.00;;;5.70;100.00
4598;BME280;62772;48.646;8.906;2023-12-14T11:29:27;96178.63;;;5.83;100.00
4598;BME280;62772;48.646;8.906;2023-12-14T11:34:28;96186.75;;;5.92;100.00
4598;BME280;62772;48.646;8.906;2023-12-14T11:39:31;96193.25;;;6.05;100.00
4598;BME280;62772;48.646;8.906;2023-12-14T11:44:32;96208.44;;;5.94;100.00
4598;BME280;62772;48.646;8.906;2023-12-14T11:49:32;96217.03;;;5.86;100.00
4598;BME280;62772;48.646;8.906;2023-12-14T11:54:33;96231.34;;;5.85;100.00
4598;BME280;62772;48.646;8.906;2023-12-14T11:59:34;96233.56;;;5.72;100.00
4598;BME280;62772;48.646;8.906;2023-12-14T12:04:35;96232.94;;;5.56;100.00
4598;BME280;62772;48.646;8.906;2023-12-14T12:09:40;96233.13;;;5.65;100.00
4598;BME280;62772;48.646;8.906;2023-12-14T12:14:41;96227.81;;;5.65;100.00
4598;BME280;62772;48.646;8.906;2023-12-14T12:19:43;96242.91;;;5.64;100.00
4598;BME280;62772;48.646;8.906;2023-12-14T12:24:43;96250.28;;;5.73;100.00
4598;BME280;62772;48.646;8.906;2023-12-14T12:29:43;96245.75;;;5.73;100.00
4598;BME280;62772;48.646;8.906;2023-12-14T12:34:44;96264.59;;;5.72;100.00
4598;BME280;62772;48.646;8.906;2023-12-14T12:39:44;96261.16;;;5.71;100.00
4598;BME280;62772;48.646;8.906;2023-12-14T12:44:45;96257.19;;;5.69;100.00
4598;BME280;62772;48.646;8.906;2023-12-14T12:49:45;96258.38;;;5.57;100.00
4598;BME280;62772;48.646;8.906;2023-12-14T12:54:45;96255.50;;;5.49;100.00
4598;BME280;62772;48.646;8.906;2023-12-14T12:59:46;96268.25;;;5.47;100.00
4598;BME280;62772;48.646;8.906;2023-12-14T13:04:46;96274.31;;;5.52;100.00
4598;BME280;62772;48.646;8.906;2023-12-14T13:09:47;96278.00;;;5.51;100.00
4598;BME280;62772;48.646;8.906;2023-12-14T13:14:48;96286.16;;;5.60;100.00
4598;BME280;62772;48.646;8.906;2023-12-14T13:19:48;96288.06;;;5.54;100.00
4598;BME280;62772;48.646;8.906;2023-12-14T13:24:48;96294.41;;;5.53;100.00
4598;BME280;62772;48.646;8.906;2023-12-14T13:29:50;96302.44;;;5.43;100.00
4598;BME280;62772;48.646;8.906;2023-12-14T13:34:50;96309.84;;;5.46;100.00
4598;BME280;62772;48.646;8.906;2023-12-14T13:39:50;96320.41;;;5.51;100.00
4598;BME280;62772;48.646;8.906;2023-12-14T13:44:53;96325.41;;;5.53;100.00
4598;BME280;62772;48.646;8.906;2023-12-14T13:49:53;96331.31;;;5.44;100.00
4598;BME280;62772;48.646;8.906;2023-12-14T13:54:53;96329.69;;;5.49;100.00
4598;BME280;62772;48.646;8.906;2023-12-14T13:59:56;96343.72;;;5.49;100.00
4598;BME280;62772;48.646;8.906;2023-12-14T14:04:56;96353.56;;;5.43;100.00
4598;BME280;62772;48.646;8.906;2023-12-14T14:09:57;96364.66;;;5.45;100.00
4598;BME280;62772;48.646;8.906;2023-12-14T14:14:57;96374.75;;;5.43;100.00
4598;BME280;62772;48.646;8.906;2023-12-14T14:19:57;96380.19;;;5.62;100.00
4598;BME280;62772;48.646;8.906;2023-12-14T14:24:58;96395.81;;;5.64;100.00
4598;BME280;62772;48.646;8.906;2023-12-14T14:29:59;96401.03;;;5.35;100.00
4598;BME280;62772;48.646;8.906;2023-12-14T14:35:00;96412.81;;;5.58;100.00
4598;BME280;62772;48.646;8.906;2023-12-14T14:40:01;96431.00;;;5.25;100.00
4598;BME280;62772;48.646;8.906;2023-12-14T14:45:01;96435.31;;;5.60;100.00
4598;BME280;62772;48.646;8.906;2023-12-14T14:50:03;96451.25;;;5.50;100.00
4598;BME280;62772;48.646;8.906;2023-12-14T14:55:04;96454.31;;;5.73;100.00
4598;BME280;62772;48.646;8.906;2023-12-14T15:00:06;96457.91;;;5.92;100.00
4598;BME280;62772;48.646;8.906;2023-12-14T15:05:07;96476.50;;;5.87;100.00
4598;BME280;62772;48.646;8.906;2023-12-14T15:10:07;96486.56;;;5.90;100.00
4598;BME280;62772;48.646;8.906;2023-12-14T15:15:08;96490.72;;;5.57;100.00
4598;BME280;62772;48.646;8.906;2023-12-14T15:20:09;96507.75;;;5.35;100.00
4598;BME280;62772;48.646;8.906;2023-12-14T15:25:09;96520.19;;;5.40;100.00
4598;BME280;62772;48.646;8.906;2023-12-14T15:30:10;96521.00;;;5.35;100.00
4598;BME280;62772;48.646;8.906;2023-12-14T15:35:12;96535.06;;;5.25;100.00
4598;BME280;62772;48.646;8.906;2023-12-14T15:40:12;96541.50;;;4.94;100.00
4598;BME280;62772;48.646;8.906;2023-12-14T15:45:13;96546.78;;;4.99;100.00
4598;BME280;62772;48.646;8.906;2023-12-14T15:50:13;96563.19;;;4.96;100.00
4598;BME280;62772;48.646;8.906;2023-12-14T15:55:14;96569.28;;;4.76;100.00
4598;BME280;62772;48.646;8.906;2023-12-14T16:00:15;96582.00;;;4.63;100.00
4598;BME280;62772;48.646;8.906;2023-12-14T16:05:16;96582.00;;;5.04;100.00
4598;BME280;62772;48.646;8.906;2023-12-14T16:10:16;96582.78;;;5.00;100.00
4598;BME280;62772;48.646;8.906;2023-12-14T16:15:17;96591.50;;;5.16;100.00
4598;BME280;62772;48.646;8.906;2023-12-14T16:20:17;96592.06;;;4.71;100.00
4598;BME280;62772;48.646;8.906;2023-12-14T16:25:19;96598.66;;;4.89;100.00
4598;BME280;62772;48.646;8.906;2023-12-14T16:30:19;96598.94;;;4.83;100.00
4598;BME280;62772;48.646;8.906;2023-12-14T16:35:20;96605.25;;;5.02;100.00
4598;BME280;62772;48.646;8.906;2023-12-14T16:40:20;96618.25;;;5.09;100.00
4598;BME280;62772;48.646;8.906;2023-12-14T16:45:21;96630.41;;;4.84;100.00
4598;BME280;62772;48.646;8.906;2023-12-14T16:50:22;96638.34;;;4.64;100.00
4598;BME280;62772;48.646;8.906;2023-12-14T16:55:22;96644.72;;;4.78;100.00
4598;BME280;62772;48.646;8.906;2023-12-14T17:00:22;96650.00;;;4.94;100.00
4598;BME280;62772;48.646;8.906;2023-12-14T17:05:24;96663.50;;;4.92;100.00
4598;BME280;62772;48.646;8.906;2023-12-14T17:10:24;96667.47;;;5.20;100.00
4598;BME280;62772;48.646;8.906;2023-12-14T17:15:24;96671.97;;;4.99;100.00
4598;BME280;62772;48.646;8.906;2023-12-14T17:20:25;96674.31;;;4.54;100.00
4598;BME280;62772;48.646;8.906;2023-12-14T17:25:25;96696.22;;;4.40;100.00
4598;BME280;62772;48.646;8.906;2023-12-14T17:30:26;96696.69;;;4.21;100.00
4598;BME280;62772;48.646;8.906;2023-12-14T17:35:26;96710.69;;;4.16;100.00
4598;BME280;62772;48.646;8.906;2023-12-14T17:40:27;96699.47;;;4.62;100.00
4598;BME280;62772;48.646;8.906;2023-12-14T17:45:27;96713.75;;;4.71;100.00
4598;BME280;62772;48.646;8.906;2023-12-14T17:50:28;96724.28;;;4.51;100.00
4598;BME280;62772;48.646;8.906;2023-12-14T17:55:28;96736.38;;;4.26;100.00
4598;BME280;62772;48.646;8.906;2023-12-14T18:00:28;96746.22;;;4.41;100.00
4598;BME280;62772;48.646;8.906;2023-12-14T18:05:30;96753.13;;;4.58;100.00
4598;BME280;62772;48.646;8.906;2023-12-14T18:10:30;96764.53;;;4.58;100.00
4598;BME280;62772;48.646;8.906;2023-12-14T18:15:31;96774.38;;;4.15;100.00
4598;BME280;62772;48.646;8.906;2023-12-14T18:20:31;96785.03;;;4.30;100.00
4598;BME280;62772;48.646;8.906;2023-12-14T18:25:32;96799.47;;;4.07;100.00
4598;BME280;62772;48.646;8.906;2023-12-14T18:30:33;96812.53;;;4.29;100.00
4598;BME280;62772;48.646;8.906;2023-12-14T18:35:34;96820.34;;;4.09;100.00
4598;BME280;62772;48.646;8.906;2023-12-14T18:40:34;96833.22;;;3.95;100.00
4598;BME280;62772;48.646;8.906;2023-12-14T18:45:34;96837.69;;;3.94;100.00
4598;BME280;62772;48.646;8.906;2023-12-14T18:50:37;96846.94;;;3.59;100.00
4598;BME280;62772;48.646;8.906;2023-12-14T18:55:38;96858.50;;;3.80;100.00
4598;BME280;62772;48.646;8.906;2023-12-14T19:00:38;96862.72;;;3.81;100.00
4598;BME280;62772;48.646;8.906;2023-12-14T19:05:39;96865.50;;;3.65;100.00
4598;BME280;62772;48.646;8.906;2023-12-14T19:10:39;96870.66;;;3.54;100.00
4598;BME280;62772;48.646;8.906;2023-12-14T19:15:40;96862.38;;;3.73;100.00
4598;BME280;62772;48.646;8.906;2023-12-14T19:20:42;96874.72;;;3.62;100.00
4598;BME280;62772;48.646;8.906;2023-12-14T19:25:42;96880.16;;;3.83;100.00
4598;BME280;62772;48.646;8.906;2023-12-14T19:30:43;96883.50;;;3.68;100.00
4598;BME280;62772;48.646;8.906;2023-12-14T19:35:44;96889.38;;;3.48;100.00
4598;BME280;62772;48.646;8.906;2023-12-14T19:40:45;96903.78;;;3.35;100.00
4598;BME280;62772;48.646;8.906;2023-12-14T19:45:45;96915.31;;;3.29;100.00
4598;BME280;62772;48.646;8.906;2023-12-14T19:50:46;96915.84;;;3.31;100.00
4598;BME280;62772;48.646;8.906;2023-12-14T19:55:46;96927.28;;;3.36;100.00
4598;BME280;62772;48.646;8.906;2023-12-14T20:00:47;96929.31;;;3.29;100.00
4598;BME280;62772;48.646;8.906;2023-12-14T20:05:48;96938.34;;;3.33;100.00
4598;BME280;62772;48.646;8.906;2023-12-14T20:10:49;96937.72;;;3.26;100.00
4598;BME280;62772;48.646;8.906;2023-12-14T20:15:49;96953.31;;;3.27;100.00
4598;BME280;62772;48.646;8.906;2023-12-14T20:20:49;96960.97;;;3.29;100.00
4598;BME280;62772;48.646;8.906;2023-12-14T20:25:51;96979.09;;;3.42;100.00
4598;BME280;62772;48.646;8.906;2023-12-14T20:30:52;96989.97;;;3.46;100.00
4598;BME280;62772;48.646;8.906;2023-12-14T20:35:52;97008.75;;;3.27;100.00
4598;BME280;62772;48.646;8.906;2023-12-14T20:40:54;97014.94;;;3.16;100.00
4598;BME280;62772;48.646;8.906;2023-12-14T20:45:54;97029.19;;;2.76;100.00
4598;BME280;62772;48.646;8.906;2023-12-14T20:50:54;97049.09;;;2.67;100.00
4598;BME280;62772;48.646;8.906;2023-12-14T20:55:55;97049.25;;;2.43;100.00
4598;BME280;62772;48.646;8.906;2023-12-14T21:00:56;97051.28;;;2.53;100.00
4598;BME280;62772;48.646;8.906;2023-12-14T21:05:56;97053.31;;;2.51;100.00
4598;BME280;62772;48.646;8.906;2023-12-14T21:10:56;97066.56;;;2.22;100.00
4598;BME280;62772;48.646;8.906;2023-12-14T21:15:57;97073.28;;;2.30;100.00
4598;BME280;62772;48.646;8.906;2023-12-14T21:20:57;97075.94;;;2.47;100.00
4598;BME280;62772;48.646;8.906;2023-12-14T21:25:58;97083.06;;;2.63;100.00
4598;BME280;62772;48.646;8.906;2023-12-14T21:31:04;97087.94;;;2.54;100.00
4598;BME280;62772;48.646;8.906;2023-12-14T21:36:06;97098.38;;;2.32;100.00
4598;BME280;62772;48.646;8.906;2023-12-14T21:41:06;97111.81;;;2.48;100.00
4598;BME280;62772;48.646;8.906;2023-12-14T21:46:07;97118.47;;;2.50;100.00
4598;BME280;62772;48.646;8.906;2023-12-14T21:51:07;97136.34;;;1.91;100.00
4598;BME280;62772;48.646;8.906;2023-12-14T21:56:08;97140.59;;;1.92;100.00
4598;BME280;62772;48.646;8.906;2023-12-14T22:01:09;97148.72;;;1.90;100.00
4598;BME280;62772;48.646;8.906;2023-12-14T22:06:10;97144.78;;;2.05;100.00
4598;BME280;62772;48.646;8.906;2023-12-14T22:11:13;97158.94;;;1.87;100.00
4598;BME280;62772;48.646;8.906;2023-12-14T22:16:15;97166.72;;;1.70;100.00
4598;BME280;62772;48.646;8.906;2023-12-14T22:21:17;97166.97;;;1.80;100.00
4598;BME280;62772;48.646;8.906;2023-12-14T22:26:18;97177.31;;;2.10;100.00
4598;BME280;62772;48.646;8.906;2023-12-14T22:31:19;97183.44;;;1.63;100.00
4598;BME280;62772;48.646;8.906;2023-12-14T22:36:20;97194.81;;;1.64;100.00
4598;BME280;62772;48.646;8.906;2023-12-14T22:41:20;97194.66;;;1.94;100.00
4598;BME280;62772;48.646;8.906;2023-12-14T22:46:20;97199.59;;;1.79;100.00
4598;BME280;62772;48.646;8.906;2023-12-14T22:51:21;97206.13;;;1.65;100.00
4598;BME280;62772;48.646;8.906;2023-12-14T22:56:23;97219.75;;;1.73;100.00
4598;BME280;62772;48.646;8.906;2023-12-14T23:01:29;97216.97;;;1.92;100.00
4598;BME280;62772;48.646;8.906;2023-12-14T23:06:31;97223.78;;;1.64;100.00
4598;BME280;62772;48.646;8.906;2023-12-14T23:11:34;97230.63;;;1.53;100.00
4598;BME280;62772;48.646;8.906;2023-12-14T23:16:35;97235.88;;;1.89;100.00
4598;BME280;62772;48.646;8.906;2023-12-14T23:21:35;97249.97;;;1.71;100.00
4598;BME280;62772;48.646;8.906;2023-12-14T23:26:35;97247.91;;;1.73;100.00
4598;BME280;62772;48.646;8.906;2023-12-14T23:31:36;97259.47;;;1.84;100.00
4598;BME280;62772;48.646;8.906;2023-12-14T23:36:37;97268.41;;;1.94;100.00
4598;BME280;62772;48.646;8.906;2023-12-14T23:41:37;97269.22;;;1.83;100.00
4598;BME280;62772;48.646;8.906;2023-12-14T23:46:37;97287.28;;;1.56;100.00
4598;BME280;62772;48.646;8.906;2023-12-14T23:51:38;97294.38;;;1.55;100.00
4598;BME280;62772;48.646;8.906;2023-12-14T23:56:39;97297.06;;;1.67;100.00
